Messwerte Mexiko-Stadt

Temperatur

Temperatur
°C
1614373200 15.00 15.00 28
1614376800 16.00 16.00 28
1614380400 17.00 17.00 28
1614384000 18.00 18.00
1614387600 19.00 19.00 24
1614391200 20.00 20.00 22
1614394800 21.00 21.00 21
1614398400 22.00 22.00 20
1614402000 23.00 23.00 19
1614405600 0.00 0.00 18
1614409200 1.00 1.00 18
1614412800 2.00 2.00 17
1614416400 3.00 3.00 15
1614420000 4.00 4.00 15
1614423600 5.00 5.00 14
1614427200 6.00 6.00 12
1614430800 7.00 7.00 12
1614434400 8.00 8.00
1614438000 9.00 9.00 17
1614441600 10.00 10.00 19
1614445200 11.00 11.00 22
1614448800 12.00 12.00 24
1614452400 13.00 13.00 25
1614456000 14.00 14.00 26

Aktuellste Messwerte

Wettercharakter
Wetter: sonnig
Temperatur
27 °C
Feuchtigkeit
15 %
Wind
15 km/hWindrichtung: Nord
Luftdruck
1021 hPa
Messzeit: 27. Februar 2021, 15.00Datenquelle: METAR

Weitere Messstationen in der Nähe

Messstation Temperatur Entfernung
Toluca 29 °C 60 km
Cuernavaca 31 °C 62 km
Puebla 26 °C 109 km
Queretaro 28 °C 184 km
Morelia 29 °C 217 km
Poza Rica / Palizada 31 °C 216 km
Guanajuato 29 °C 284 km

Wind

Windrichtung Böen Mittelwind
° km/h km/h
1614373200 15.00 14.00 - 15.00 270° 5
1614376800 16.00 15.00 - 16.00 210° 5
1614380400 17.00 16.00 - 17.00 110° 10
1614384000 18.00 17.00 - 18.00
1614387600 19.00 18.00 - 19.00 130° 20
1614391200 20.00 19.00 - 20.00 130° 35 15
1614394800 21.00 20.00 - 21.00 90° 20
1614398400 22.00 21.00 - 22.00 70° 10
1614402000 23.00 22.00 - 23.00 120° 5
1614405600 0.00 23.00 - 0.00 50° 5
1614409200 1.00 0.00 - 1.00 0
1614412800 2.00 1.00 - 2.00 0
1614416400 3.00 2.00 - 3.00 60° 5
1614420000 4.00 3.00 - 4.00 0
1614423600 5.00 4.00 - 5.00 0
1614427200 6.00 5.00 - 6.00 60° 5
1614430800 7.00 6.00 - 7.00 0
1614434400 8.00 7.00 - 8.00
1614438000 9.00 8.00 - 9.00 30° 5
1614441600 10.00 9.00 - 10.00 0
1614445200 11.00 10.00 - 11.00 150° 10
1614448800 12.00 11.00 - 12.00 210° 5
1614452400 13.00 12.00 - 13.00 40° 10
1614456000 14.00 13.00 - 14.00 220° 5

Ihre Wetterstation

Fehlt Ihre Wetterstation auf unserem Portal?

Schreiben Sie an network@meteonews.ch

Klima

Wann ist es am wärmsten? Wann regnet es am wenigsten? Unsere Klimadaten geben Auskunft.